Time;durP1;ratioP1;P1;durP2;ratioP2;P2;SDS_P1;SDS_P2;PMS_P1;PMS_P2;Temp;Humidity;BMP_temperature;BMP_pressure;BME280_temperature;BME280_humidity;BME280_pressure;Samples;Min_cycle;Max_cycle;Signal;HPM_P1;HPM_P2
2021/05/21 00:01:43;;;;;;;2.47;1.60;;;13.70;99.90;;;;;;5055728;28;20213;-58
2021/05/21 00:04:09;;;;;;;3.43;1.50;;;13.70;99.90;;;;;;5055908;28;20193;-58
2021/05/21 00:06:34;;;;;;;6.23;1.50;;;13.70;99.90;;;;;;5055864;28;20243;-58
2021/05/21 00:09:00;;;;;;;1.67;1.57;;;13.60;99.90;;;;;;5055433;28;20690;-59
2021/05/21 00:11:25;;;;;;;2.30;1.80;;;13.70;99.90;;;;;;5055618;28;20262;-59
2021/05/21 00:13:51;;;;;;;1.73;1.63;;;13.70;99.90;;;;;;5055451;28;20653;-59
2021/05/21 00:16:17;;;;;;;1.53;1.37;;;13.80;99.90;;;;;;5055387;28;20178;-59
2021/05/21 00:18:45;;;;;;;1.80;1.60;;;13.80;99.90;;;;;;5055402;28;20209;-58
2021/05/21 00:21:10;;;;;;;3.03;1.73;;;13.70;99.90;;;;;;5055494;28;20171;-58
2021/05/21 00:23:36;;;;;;;2.53;1.63;;;13.80;99.90;;;;;;5055454;28;20779;-57
2021/05/21 00:26:01;;;;;;;2.63;1.50;;;13.80;99.90;;;;;;5055247;28;20221;-59
2021/05/21 00:28:27;;;;;;;1.53;1.43;;;13.90;99.90;;;;;;5055519;28;20187;-59
2021/05/21 00:30:53;;;;;;;3.83;1.50;;;13.90;99.90;;;;;;5055442;28;20233;-59
2021/05/21 00:33:18;;;;;;;1.40;1.30;;;13.90;99.90;;;;;;5055221;28;20173;-58
2021/05/21 00:35:44;;;;;;;2.80;1.67;;;13.90;99.90;;;;;;5055494;28;20211;-58
2021/05/21 00:38:09;;;;;;;2.30;1.53;;;13.80;99.90;;;;;;5055374;28;20193;-58
2021/05/21 00:40:35;;;;;;;2.20;1.67;;;13.70;99.90;;;;;;5055615;28;20223;-58
2021/05/21 00:43:01;;;;;;;2.13;1.57;;;13.80;99.90;;;;;;5055480;28;20172;-58
2021/05/21 00:45:26;;;;;;;2.10;1.57;;;13.80;99.90;;;;;;5056067;28;20167;-57
2021/05/21 00:47:52;;;;;;;2.50;1.50;;;13.90;99.90;;;;;;5056790;28;20166;-58
2021/05/21 00:50:17;;;;;;;1.27;1.17;;;14.00;99.90;;;;;;5056637;28;20219;-57
2021/05/21 00:52:44;;;;;;;2.23;1.50;;;14.10;99.90;;;;;;5054885;28;20175;-59
2021/05/21 00:55:10;;;;;;;2.27;1.60;;;14.10;99.90;;;;;;5036524;28;20211;-57
2021/05/21 00:57:37;;;;;;;1.90;1.80;;;14.20;99.90;;;;;;5054444;28;20895;-58
2021/05/21 01:00:06;;;;;;;2.83;2.00;;;14.20;99.90;;;;;;5054556;28;20442;-58
2021/05/21 01:02:32;;;;;;;1.77;1.47;;;14.00;99.90;;;;;;5054127;28;20451;-58
2021/05/21 01:04:58;;;;;;;2.50;1.60;;;13.80;99.90;;;;;;5054537;28;20398;-55
2021/05/21 01:07:24;;;;;;;1.83;1.70;;;13.70;99.90;;;;;;5054436;28;20198;-58
2021/05/21 01:09:50;;;;;;;1.50;1.40;;;13.80;99.90;;;;;;5054199;28;20722;-58
2021/05/21 01:12:16;;;;;;;1.60;1.50;;;13.70;99.90;;;;;;5054116;28;20496;-58
2021/05/21 01:14:52;;;;;;;1.70;1.60;;;13.80;99.90;;;;;;5054280;28;20444;-56
2021/05/21 01:17:19;;;;;;;1.57;1.47;;;13.70;99.90;;;;;;5054455;28;20182;-56
2021/05/21 01:19:45;;;;;;;2.67;1.70;;;13.70;99.90;;;;;;5063664;23;20489;-50
2021/05/21 01:22:11;;;;;;;1.77;1.67;;;13.50;99.90;;;;;;5034526;28;20403;-53
2021/05/21 01:24:37;;;;;;;1.30;1.20;;;13.60;99.90;;;;;;5034324;28;20159;-51
2021/05/21 01:27:05;;;;;;;2.43;1.67;;;13.70;99.90;;;;;;5016146;28;20414;-52
2021/05/21 01:29:31;;;;;;;2.10;1.23;;;13.70;99.90;;;;;;5034046;28;20183;-53
2021/05/21 01:31:57;;;;;;;1.47;1.27;;;13.90;99.90;;;;;;5034571;28;20800;-54
2021/05/21 01:34:23;;;;;;;2.30;1.50;;;14.00;99.90;;;;;;5034201;28;20397;-52
2021/05/21 01:36:49;;;;;;;1.93;1.40;;;14.10;99.90;;;;;;5034590;28;20391;-53
2021/05/21 01:39:15;;;;;;;1.30;1.20;;;14.10;99.90;;;;;;5033829;28;20460;-52
2021/05/21 01:41:42;;;;;;;1.93;1.33;;;14.00;99.90;;;;;;5034432;28;20636;-52
2021/05/21 01:44:10;;;;;;;1.20;1.10;;;14.00;99.90;;;;;;5033974;28;20406;-52
2021/05/21 01:46:37;;;;;;;1.93;1.30;;;14.00;99.90;;;;;;5016398;28;20410;-52
2021/05/21 01:49:04;;;;;;;1.10;1.00;;;13.90;99.90;;;;;;5034303;28;20930;-54
2021/05/21 01:51:32;;;;;;;2.30;1.60;;;13.90;99.90;;;;;;5034348;28;20406;-53
2021/05/21 01:54:14;;;;;;;1.80;1.50;;;13.50;99.90;;;;;;5033663;28;20481;-50
2021/05/21 01:56:40;;;;;;;1.90;1.20;;;13.50;99.90;;;;;;5034111;28;20449;-51
2021/05/21 01:59:05;;;;;;;1.50;1.20;;;13.60;99.90;;;;;;5028867;28;20862;-50
2021/05/21 02:01:31;;;;;;;1.50;1.40;;;13.80;99.90;;;;;;5027435;28;20205;-54
2021/05/21 02:03:58;;;;;;;1.50;1.40;;;13.80;99.90;;;;;;5033833;28;20190;-51
2021/05/21 02:06:25;;;;;;;2.20;1.50;;;13.80;99.90;;;;;;5033774;28;20167;-52
2021/05/21 02:08:50;;;;;;;1.80;1.30;;;13.80;99.90;;;;;;5033212;28;20427;-54
2021/05/21 02:11:16;;;;;;;3.93;1.60;;;13.70;99.90;;;;;;5033464;28;20458;-53
2021/05/21 02:13:42;;;;;;;1.30;1.20;;;13.60;99.90;;;;;;5034057;28;20174;-54
2021/05/21 02:16:08;;;;;;;2.53;1.43;;;13.50;99.90;;;;;;5033876;28;20879;-49
2021/05/21 02:18:33;;;;;;;2.63;1.93;;;13.60;99.90;;;;;;5033532;28;20245;-51
2021/05/21 02:20:59;;;;;;;2.53;1.50;;;13.60;99.90;;;;;;5033684;28;20187;-53
2021/05/21 02:23:25;;;;;;;1.57;1.20;;;13.50;99.90;;;;;;5033621;28;20271;-50
2021/05/21 02:25:50;;;;;;;1.50;1.20;;;13.30;99.90;;;;;;5033376;28;20159;-53
2021/05/21 02:28:16;;;;;;;2.20;1.33;;;13.50;99.90;;;;;;5033398;28;20240;-49
2021/05/21 02:30:42;;;;;;;2.43;1.17;;;13.40;99.90;;;;;;5033618;28;20202;-53
2021/05/21 02:33:07;;;;;;;2.80;1.33;;;13.60;99.90;;;;;;5033529;28;20179;-53
2021/05/21 02:35:33;;;;;;;1.10;1.00;;;13.60;99.90;;;;;;5033502;28;20182;-51
2021/05/21 02:37:58;;;;;;;3.20;1.60;;;13.60;99.90;;;;;;5014527;28;20581;-54
2021/05/21 02:40:24;;;;;;;2.17;1.20;;;13.50;99.90;;;;;;5033327;28;20197;-55
2021/05/21 02:42:51;;;;;;;1.53;1.43;;;13.40;99.90;;;;;;5033094;28;20247;-51
2021/05/21 02:45:17;;;;;;;1.67;1.37;;;13.40;99.90;;;;;;5033433;28;20660;-55
2021/05/21 02:47:42;;;;;;;1.60;1.30;;;13.40;99.90;;;;;;5033495;28;20410;-54
2021/05/21 02:50:09;;;;;;;1.87;1.13;;;13.40;99.90;;;;;;5033183;28;20710;-53
2021/05/21 02:52:34;;;;;;;1.73;1.27;;;13.30;99.90;;;;;;5032914;28;20670;-51
2021/05/21 02:55:00;;;;;;;1.67;0.90;;;13.30;99.90;;;;;;5033039;28;20410;-55
2021/05/21 02:57:26;;;;;;;2.57;1.57;;;13.30;99.90;;;;;;5032684;28;20170;-53
2021/05/21 02:59:56;;;;;;;1.40;1.07;;;13.20;99.90;;;;;;5033037;28;20198;-54
2021/05/21 03:02:22;;;;;;;1.67;1.50;;;13.30;99.90;;;;;;5033514;28;20546;-53
2021/05/21 03:04:49;;;;;;;1.90;1.13;;;13.30;99.90;;;;;;5033274;28;20394;-53
2021/05/21 03:07:14;;;;;;;2.40;1.77;;;13.40;99.90;;;;;;5033060;28;20434;-55
2021/05/21 03:09:40;;;;;;;1.23;1.10;;;13.30;99.90;;;;;;5033301;28;20511;-55
2021/05/21 03:12:07;;;;;;;1.40;1.30;;;13.40;99.90;;;;;;5033063;28;20271;-51
2021/05/21 03:14:32;;;;;;;1.30;1.20;;;13.50;99.90;;;;;;5033124;28;20178;-54
2021/05/21 03:16:59;;;;;;;1.40;1.30;;;13.40;99.90;;;;;;5033308;28;20421;-53
2021/05/21 03:19:25;;;;;;;1.20;1.10;;;13.30;99.90;;;;;;5033302;28;20214;-52
2021/05/21 03:21:50;;;;;;;1.20;1.10;;;13.30;99.90;;;;;;5033431;28;20410;-55
2021/05/21 03:24:16;;;;;;;2.60;1.37;;;13.30;99.90;;;;;;5032921;28;20165;-55
2021/05/21 03:26:41;;;;;;;1.40;1.20;;;13.20;99.90;;;;;;5032565;28;20177;-55
2021/05/21 03:29:07;;;;;;;2.30;1.23;;;13.20;99.90;;;;;;5033141;28;20204;-53
2021/05/21 03:31:33;;;;;;;4.00;1.20;;;13.20;99.90;;;;;;5033181;28;20251;-51
2021/05/21 03:33:58;;;;;;;1.80;1.57;;;13.20;99.90;;;;;;5032929;28;20174;-52
2021/05/21 03:36:24;;;;;;;1.70;1.13;;;13.20;99.90;;;;;;5033370;28;20217;-52
2021/05/21 03:38:50;;;;;;;1.40;1.30;;;13.20;99.90;;;;;;5032624;28;20196;-54
2021/05/21 03:41:15;;;;;;;1.67;1.10;;;13.20;99.90;;;;;;5014969;28;20202;-52
2021/05/21 03:43:41;;;;;;;1.60;1.40;;;13.20;99.90;;;;;;5032753;28;20159;-52
2021/05/21 03:46:06;;;;;;;1.33;1.23;;;13.20;99.90;;;;;;5033006;28;20182;-55
2021/05/21 03:48:32;;;;;;;2.07;1.00;;;13.20;99.90;;;;;;5034764;28;20187;-51
2021/05/21 03:50:58;;;;;;;1.40;1.30;;;13.20;99.90;;;;;;5036606;28;20636;-55
2021/05/21 03:53:23;;;;;;;3.27;1.60;;;13.20;99.90;;;;;;5035968;28;20209;-51
2021/05/21 03:55:49;;;;;;;1.40;0.97;;;13.20;99.90;;;;;;5036280;28;20598;-52
2021/05/21 03:58:15;;;;;;;1.20;1.10;;;13.20;99.90;;;;;;5036715;28;20183;-55
2021/05/21 04:00:41;;;;;;;1.53;1.30;;;13.20;99.90;;;;;;5018314;28;20225;-52
2021/05/21 04:03:07;;;;;;;2.10;1.20;;;13.20;99.90;;;;;;5036761;28;20177;-51
2021/05/21 04:05:33;;;;;;;1.57;1.47;;;13.20;99.90;;;;;;5036152;28;20410;-52
2021/05/21 04:07:59;;;;;;;1.53;1.43;;;13.20;99.90;;;;;;5035481;28;20715;-54
2021/05/21 04:10:26;;;;;;;1.20;1.10;;;13.40;99.90;;;;;;5036132;28;20848;-53
2021/05/21 04:12:52;;;;;;;1.03;0.93;;;13.50;99.90;;;;;;5035901;28;20400;-55
2021/05/21 04:15:18;;;;;;;1.13;1.03;;;13.50;99.90;;;;;;5035814;28;20406;-53
2021/05/21 04:17:44;;;;;;;1.63;1.23;;;13.60;99.90;;;;;;5036213;28;20425;-52
2021/05/21 04:20:10;;;;;;;1.40;1.10;;;13.50;99.90;;;;;;5035693;28;20798;-54
2021/05/21 04:22:36;;;;;;;1.50;1.20;;;13.50;99.90;;;;;;5035798;28;20172;-54
2021/05/21 04:25:03;;;;;;;2.53;1.30;;;13.50;99.90;;;;;;5035883;28;20426;-52
2021/05/21 04:27:28;;;;;;;2.40;1.00;;;13.50;99.90;;;;;;5035208;28;20168;-55
2021/05/21 04:29:54;;;;;;;1.00;0.90;;;13.50;99.90;;;;;;5035611;28;20437;-52
2021/05/21 04:32:20;;;;;;;2.10;1.10;;;13.50;99.90;;;;;;5036152;28;20168;-52
2021/05/21 04:34:45;;;;;;;1.47;1.10;;;13.60;99.90;;;;;;5036088;28;20187;-54
2021/05/21 04:37:11;;;;;;;3.37;1.33;;;13.50;99.90;;;;;;5035363;28;20604;-55
2021/05/21 04:39:37;;;;;;;3.03;1.50;;;13.50;99.90;;;;;;5035434;28;20212;-52
2021/05/21 04:42:03;;;;;;;1.97;1.30;;;13.50;99.90;;;;;;5035237;28;20176;-54
2021/05/21 04:44:28;;;;;;;1.30;1.00;;;13.60;99.90;;;;;;5035114;28;20272;-54
2021/05/21 04:46:54;;;;;;;2.60;1.33;;;13.70;99.90;;;;;;5035184;28;20489;-55
2021/05/21 04:49:32;;;;;;;1.37;1.10;;;13.80;99.90;;;;;;5035052;28;20197;-52
2021/05/21 04:52:06;;;;;;;1.33;1.00;;;13.90;99.90;;;;;;5029231;28;20683;-52
2021/05/21 04:54:36;;;;;;;1.50;1.40;;;14.00;99.90;;;;;;5030040;28;20411;-55
2021/05/21 04:57:03;;;;;;;1.57;1.20;;;14.10;99.90;;;;;;5035529;28;20837;-52
2021/05/21 04:59:29;;;;;;;4.17;1.60;;;14.20;99.90;;;;;;5034060;28;20493;-52
2021/05/21 05:01:55;;;;;;;1.10;1.00;;;14.20;99.90;;;;;;5035285;28;20399;-55
2021/05/21 05:04:21;;;;;;;1.90;1.40;;;14.20;99.90;;;;;;5034869;28;20482;-52
2021/05/21 05:06:47;;;;;;;1.30;1.00;;;14.30;99.90;;;;;;5035052;28;20190;-55
2021/05/21 05:09:14;;;;;;;1.77;1.23;;;14.20;99.90;;;;;;5034709;28;20437;-52
2021/05/21 05:11:41;;;;;;;2.50;1.17;;;14.20;99.90;;;;;;5034891;28;20430;-55
2021/05/21 05:14:11;;;;;;;1.23;1.03;;;14.30;99.90;;;;;;5034299;28;20407;-55
2021/05/21 05:16:38;;;;;;;1.53;1.03;;;14.50;99.90;;;;;;5034764;28;20397;-52
2021/05/21 05:19:04;;;;;;;1.20;1.10;;;14.40;99.90;;;;;;5034421;28;20466;-55
2021/05/21 05:21:41;;;;;;;1.00;0.90;;;14.40;99.90;;;;;;5034591;28;20438;-53
2021/05/21 05:24:12;;;;;;;1.87;1.00;;;14.40;99.90;;;;;;5034698;28;20385;-52
2021/05/21 05:26:38;;;;;;;1.20;1.10;;;14.50;99.90;;;;;;5034464;28;20375;-55
2021/05/21 05:29:04;;;;;;;1.30;1.20;;;14.60;99.90;;;;;;5033982;28;20478;-56
2021/05/21 05:31:29;;;;;;;1.33;1.00;;;14.70;99.90;;;;;;5034509;28;20258;-54
2021/05/21 05:33:55;;;;;;;1.67;1.20;;;14.70;99.90;;;;;;5034392;28;20255;-54
2021/05/21 05:36:20;;;;;;;2.00;0.90;;;14.70;99.90;;;;;;5034203;28;20662;-56
2021/05/21 05:38:46;;;;;;;1.73;0.80;;;14.80;99.90;;;;;;5033973;28;20198;-56
2021/05/21 05:41:12;;;;;;;1.77;1.60;;;14.80;99.90;;;;;;5016294;28;20261;-55
2021/05/21 05:43:37;;;;;;;1.10;0.80;;;14.90;99.90;;;;;;5034433;28;20194;-56
2021/05/21 05:46:04;;;;;;;1.47;0.97;;;15.00;99.90;;;;;;5016165;28;20204;-54
2021/05/21 05:48:31;;;;;;;1.03;0.90;;;15.10;99.70;;;;;;5033736;28;20189;-55
2021/05/21 05:50:56;;;;;;;1.50;1.40;;;15.10;99.70;;;;;;5034184;28;20455;-55
2021/05/21 05:53:22;;;;;;;1.53;1.10;;;15.20;99.30;;;;;;5033738;28;20893;-55
2021/05/21 05:55:47;;;;;;;1.97;0.93;;;15.20;99.70;;;;;;5033777;28;20181;-55
2021/05/21 05:58:13;;;;;;;1.63;0.90;;;15.30;99.60;;;;;;5033733;28;20166;-54
2021/05/21 06:00:39;;;;;;;1.53;1.00;;;15.30;99.90;;;;;;5034053;28;20548;-55
2021/05/21 06:03:14;;;;;;;2.10;0.80;;;15.30;99.20;;;;;;5033661;28;20181;-54
2021/05/21 06:05:39;;;;;;;3.70;1.00;;;15.20;99.20;;;;;;5033716;28;20934;-56
2021/05/21 06:08:07;;;;;;;1.77;1.40;;;15.30;99.50;;;;;;5033368;28;20399;-53
2021/05/21 06:10:34;;;;;;;1.50;1.33;;;15.40;99.50;;;;;;5033460;28;20647;-53
2021/05/21 06:13:01;;;;;;;1.40;1.07;;;15.60;99.40;;;;;;5033413;28;20406;-55
2021/05/21 06:15:27;;;;;;;2.13;1.13;;;15.70;99.20;;;;;;5033421;28;20875;-55
2021/05/21 06:17:54;;;;;;;1.30;1.00;;;15.70;99.10;;;;;;5033593;28;20491;-52
2021/05/21 06:20:20;;;;;;;4.87;3.20;;;15.70;98.50;;;;;;5033254;28;20461;-55
2021/05/21 06:22:45;;;;;;;1.17;1.07;;;15.70;98.60;;;;;;5033939;28;20400;-56
2021/05/21 06:25:12;;;;;;;2.30;1.20;;;15.80;98.30;;;;;;5033174;28;20460;-52
2021/05/21 06:27:38;;;;;;;1.17;0.70;;;15.80;98.70;;;;;;5033496;28;20232;-56
2021/05/21 06:30:08;;;;;;;1.13;0.90;;;15.90;98.60;;;;;;5033584;28;20820;-54
2021/05/21 06:32:34;;;;;;;1.30;0.97;;;16.00;98.50;;;;;;5033338;28;20390;-56
2021/05/21 06:34:59;;;;;;;1.77;1.30;;;15.90;98.80;;;;;;5033503;28;20791;-55
2021/05/21 06:37:28;;;;;;;2.63;1.20;;;15.90;98.40;;;;;;5033491;28;20182;-54
2021/05/21 06:39:53;;;;;;;2.10;1.30;;;15.90;98.80;;;;;;5033573;28;20547;-52
2021/05/21 06:42:19;;;;;;;3.67;1.40;;;16.10;99.00;;;;;;5033076;28;20410;-54
2021/05/21 06:44:45;;;;;;;2.67;0.87;;;16.10;98.90;;;;;;5033303;28;20168;-52
2021/05/21 06:47:10;;;;;;;2.43;1.00;;;16.10;98.30;;;;;;5032883;28;20176;-56
2021/05/21 06:49:38;;;;;;;1.13;1.00;;;16.20;99.40;;;;;;5033087;28;20435;-52
2021/05/21 06:52:04;;;;;;;2.10;0.90;;;16.20;98.30;;;;;;5033550;28;20258;-53
2021/05/21 06:54:30;;;;;;;2.60;1.10;;;16.30;98.50;;;;;;5033073;28;20505;-51
2021/05/21 06:56:56;;;;;;;3.00;1.10;;;16.40;98.30;;;;;;5033006;28;20415;-53
2021/05/21 06:59:21;;;;;;;3.67;1.23;;;16.40;98.30;;;;;;5032975;28;20614;-54
2021/05/21 07:01:47;;;;;;;1.10;1.00;;;16.40;98.80;;;;;;5032986;28;20256;-53
2021/05/21 07:04:12;;;;;;;2.03;1.47;;;16.40;98.30;;;;;;5032973;28;20257;-54
2021/05/21 07:06:38;;;;;;;5.90;1.60;;;16.60;98.80;;;;;;5033097;28;20310;-53
2021/05/21 07:09:04;;;;;;;2.50;1.20;;;16.70;98.50;;;;;;5032573;28;20189;-54
2021/05/21 07:11:29;;;;;;;3.27;1.23;;;16.60;98.40;;;;;;5032490;28;20167;-52
2021/05/21 07:13:56;;;;;;;1.40;0.97;;;16.40;98.50;;;;;;5033328;28;20178;-57
2021/05/21 07:16:22;;;;;;;5.00;1.50;;;16.50;99.00;;;;;;5033002;28;20269;-57
2021/05/21 07:18:48;;;;;;;4.70;1.53;;;16.50;98.50;;;;;;5032194;28;20491;-57
2021/05/21 07:23:50;;;;;;;1.60;0.90;;;16.50;98.70;;;;;;5077244;23;20234;-57
2021/05/21 07:26:16;;;;;;;1.63;1.03;;;16.40;98.40;;;;;;5053992;28;21030;-58
2021/05/21 07:28:42;;;;;;;1.43;0.90;;;16.50;99.10;;;;;;5055740;28;20499;-58
2021/05/21 07:31:08;;;;;;;1.20;1.00;;;16.50;98.90;;;;;;5057403;28;20387;-59
2021/05/21 07:33:35;;;;;;;1.43;0.97;;;16.60;98.40;;;;;;5056681;28;20632;-58
2021/05/21 07:36:01;;;;;;;1.20;1.10;;;16.60;99.10;;;;;;5056290;28;20157;-58
2021/05/21 07:38:27;;;;;;;1.03;0.93;;;16.60;98.80;;;;;;5056196;28;20406;-58
2021/05/21 07:40:53;;;;;;;2.10;1.23;;;16.70;99.10;;;;;;5056247;28;20443;-59
2021/05/21 07:43:18;;;;;;;1.50;1.10;;;16.60;98.20;;;;;;5055817;28;20719;-59
2021/05/21 07:45:44;;;;;;;1.10;0.87;;;16.90;98.70;;;;;;5051422;28;20177;-57
2021/05/21 07:48:10;;;;;;;2.37;1.47;;;16.90;98.60;;;;;;5055980;28;20161;-58
2021/05/21 07:50:38;;;;;;;2.27;1.10;;;16.80;98.10;;;;;;5056080;28;20169;-58
2021/05/21 07:53:05;;;;;;;2.23;1.00;;;16.90;98.70;;;;;;5055426;28;20226;-58
2021/05/21 07:55:31;;;;;;;1.70;1.00;;;16.80;98.40;;;;;;5055864;28;20442;-58
2021/05/21 07:57:56;;;;;;;2.37;1.13;;;16.80;97.80;;;;;;5037566;28;20806;-59
2021/05/21 08:00:22;;;;;;;1.90;0.90;;;17.20;98.70;;;;;;5055915;28;20322;-57
2021/05/21 08:02:48;;;;;;;1.20;0.90;;;17.20;97.90;;;;;;5055896;28;20194;-58
2021/05/21 08:05:14;;;;;;;1.93;1.17;;;17.10;96.90;;;;;;5055853;28;20181;-58
2021/05/21 08:07:39;;;;;;;2.00;1.10;;;17.10;97.10;;;;;;5055747;28;20197;-57
2021/05/21 08:10:07;;;;;;;2.17;1.33;;;17.30;97.20;;;;;;5055660;28;20205;-57
2021/05/21 08:12:33;;;;;;;1.83;1.00;;;17.40;96.50;;;;;;5049313;28;20202;-58
2021/05/21 08:14:58;;;;;;;3.00;1.47;;;17.60;96.30;;;;;;5036741;28;20563;-58
2021/05/21 08:17:24;;;;;;;2.23;0.90;;;17.60;97.00;;;;;;5055346;28;20192;-59
2021/05/21 08:19:50;;;;;;;2.73;1.70;;;17.40;96.40;;;;;;5055711;28;20726;-58
2021/05/21 08:22:16;;;;;;;2.80;1.20;;;17.60;97.60;;;;;;5037280;28;20209;-57
2021/05/21 08:24:42;;;;;;;1.73;1.30;;;17.40;96.30;;;;;;5055035;28;20221;-58
2021/05/21 08:27:08;;;;;;;2.13;0.93;;;17.40;96.50;;;;;;5054939;28;20409;-57
2021/05/21 08:29:34;;;;;;;1.07;0.93;;;17.40;96.60;;;;;;5055050;28;20213;-57
2021/05/21 08:32:01;;;;;;;1.77;0.90;;;17.40;97.10;;;;;;5054797;28;20461;-58
2021/05/21 08:34:27;;;;;;;2.00;1.20;;;17.30;96.70;;;;;;5053802;28;20167;-57
2021/05/21 08:36:53;;;;;;;2.87;1.70;;;17.40;96.80;;;;;;5054893;28;20824;-58
2021/05/21 08:39:20;;;;;;;2.30;1.10;;;17.20;96.60;;;;;;5036676;28;20457;-58
2021/05/21 08:41:50;;;;;;;3.43;1.30;;;17.20;96.90;;;;;;5054576;28;20273;-57
2021/05/21 08:44:18;;;;;;;1.20;0.90;;;17.40;97.30;;;;;;5054976;28;20423;-53
2021/05/21 08:46:44;;;;;;;2.47;1.13;;;17.40;96.10;;;;;;5054985;28;20416;-58
2021/05/21 08:49:10;;;;;;;3.63;1.30;;;17.60;96.80;;;;;;5054704;28;20404;-58
2021/05/21 08:51:36;;;;;;;2.10;0.90;;;17.60;96.30;;;;;;5054630;28;20233;-58
2021/05/21 08:54:02;;;;;;;2.80;1.13;;;17.80;96.30;;;;;;5054410;28;20219;-58
2021/05/21 08:56:28;;;;;;;3.93;1.07;;;17.50;96.30;;;;;;5054821;28;20408;-59
2021/05/21 08:58:57;;;;;;;1.30;0.83;;;17.30;98.00;;;;;;5054435;28;20430;-58
2021/05/21 09:01:26;;;;;;;3.17;1.27;;;17.60;97.10;;;;;;5054478;28;20169;-59
2021/05/21 09:03:59;;;;;;;3.10;1.87;;;17.40;96.60;;;;;;5054810;28;20420;-58
2021/05/21 09:06:26;;;;;;;2.90;1.20;;;17.20;96.90;;;;;;5054179;28;20400;-57
2021/05/21 09:08:53;;;;;;;3.33;1.30;;;17.10;97.20;;;;;;5055176;28;20826;-58
2021/05/21 09:11:27;;;;;;;2.93;1.17;;;17.10;97.30;;;;;;5054397;28;20459;-57
2021/05/21 09:14:21;;;;;;;1.90;1.30;;;17.00;96.20;;;;;;5054441;28;20477;-58
2021/05/21 09:16:48;;;;;;;1.70;1.20;;;17.10;96.20;;;;;;5054287;28;20952;-58
2021/05/21 09:19:19;;;;;;;2.47;1.13;;;17.10;96.10;;;;;;5054324;28;20457;-54
2021/05/21 09:21:57;;;;;;;2.87;1.23;;;17.10;96.20;;;;;;5054211;28;20405;-58
2021/05/21 09:24:29;;;;;;;2.30;1.17;;;16.90;96.20;;;;;;5053803;28;20387;-58
2021/05/21 09:26:56;;;;;;;2.13;1.10;;;17.00;96.90;;;;;;5054202;28;20383;-59
2021/05/21 09:29:37;;;;;;;1.00;0.70;;;17.00;97.20;;;;;;5054374;28;20859;-57
2021/05/21 09:32:22;;;;;;;1.80;0.90;;;16.90;96.90;;;;;;5053852;28;20519;-59
2021/05/21 09:35:02;;;;;;;1.80;1.20;;;16.70;96.60;;;;;;5053696;28;20420;-58
2021/05/21 09:37:28;;;;;;;2.23;0.93;;;16.80;97.90;;;;;;5053653;28;20409;-59
2021/05/21 09:40:14;;;;;;;1.40;1.30;;;16.90;97.70;;;;;;5053630;28;20486;-58
2021/05/21 09:42:47;;;;;;;2.00;1.07;;;16.90;97.60;;;;;;5053684;28;20789;-58
2021/05/21 09:45:32;;;;;;;0.97;0.80;;;17.00;96.60;;;;;;5053825;28;20460;-58
2021/05/21 09:48:11;;;;;;;8.80;1.30;;;17.30;96.70;;;;;;5054032;28;20427;-58
2021/05/21 09:50:40;;;;;;;9.27;1.77;;;17.20;96.80;;;;;;5053657;28;20410;-58
2021/05/21 09:53:20;;;;;;;2.80;0.70;;;17.10;97.00;;;;;;5053627;28;20440;-59
2021/05/21 09:55:51;;;;;;;2.63;0.90;;;17.10;96.90;;;;;;5053405;28;20424;-58
2021/05/21 09:58:29;;;;;;;1.10;0.90;;;17.00;97.10;;;;;;5053666;28;20409;-59
2021/05/21 10:01:19;;;;;;;1.47;0.80;;;16.90;97.80;;;;;;5053830;28;20439;-58
2021/05/21 10:03:50;;;;;;;1.90;0.87;;;16.90;97.60;;;;;;5044560;28;20435;-59
2021/05/21 10:06:17;;;;;;;1.40;0.70;;;16.80;97.10;;;;;;5053441;28;20389;-58
2021/05/21 10:08:44;;;;;;;1.23;0.80;;;16.80;97.00;;;;;;5053222;28;20416;-56
2021/05/21 10:11:10;;;;;;;2.40;0.70;;;16.60;96.90;;;;;;5054208;28;20407;-58
2021/05/21 10:13:42;;;;;;;1.30;0.80;;;16.70;97.30;;;;;;5053123;28;20980;-57
2021/05/21 10:16:08;;;;;;;4.20;1.07;;;16.70;97.20;;;;;;5053055;28;20785;-57
2021/05/21 10:18:35;;;;;;;4.20;0.80;;;16.70;97.80;;;;;;5053287;28;20422;-59
2021/05/21 10:21:01;;;;;;;2.37;1.10;;;16.90;97.80;;;;;;5053712;28;20455;-57
2021/05/21 10:23:39;;;;;;;3.00;1.00;;;17.00;97.60;;;;;;5052997;28;20455;-58
2021/05/21 10:26:21;;;;;;;0.90;0.60;;;16.80;97.60;;;;;;5053229;28;20394;-58
2021/05/21 10:28:49;;;;;;;2.80;0.93;;;16.70;97.60;;;;;;5053118;28;20426;-58
2021/05/21 10:31:17;;;;;;;2.93;0.80;;;16.90;97.60;;;;;;5035322;28;20415;-55
2021/05/21 10:33:45;;;;;;;3.53;0.90;;;17.10;97.60;;;;;;5053294;28;20425;-58
2021/05/21 10:36:22;;;;;;;1.07;0.80;;;17.00;97.50;;;;;;5053386;28;20503;-57
2021/05/21 10:39:08;;;;;;;1.03;0.80;;;17.00;98.30;;;;;;5053245;28;20419;-58
2021/05/21 10:41:36;;;;;;;2.20;0.80;;;17.10;98.80;;;;;;5053062;28;20457;-58
2021/05/21 10:44:37;;;;;;;1.27;0.77;;;16.90;98.00;;;;;;5052733;28;20460;-58
2021/05/21 10:47:23;;;;;;;1.37;1.03;;;16.90;98.70;;;;;;5052671;28;20438;-58
2021/05/21 10:49:51;;;;;;;1.90;1.07;;;17.30;98.90;;;;;;5053206;28;20395;-58
2021/05/21 10:52:22;;;;;;;1.80;1.10;;;17.40;99.00;;;;;;5052622;28;20471;-57
2021/05/21 10:54:51;;;;;;;1.00;0.90;;;17.70;98.70;;;;;;5052371;28;20451;-58
2021/05/21 10:57:19;;;;;;;3.30;1.10;;;17.80;97.80;;;;;;5052470;28;20409;-58
2021/05/21 10:59:55;;;;;;;4.50;1.23;;;17.80;98.40;;;;;;5056558;28;20453;-58
2021/05/21 11:02:52;;;;;;;1.90;0.77;;;17.90;98.00;;;;;;5056471;28;20420;-57
2021/05/21 11:05:36;;;;;;;1.87;0.90;;;18.20;98.10;;;;;;5056929;28;20408;-58
2021/05/21 11:08:04;;;;;;;4.33;1.40;;;18.30;97.60;;;;;;5055724;28;20509;-57
2021/05/21 11:10:32;;;;;;;2.90;1.30;;;18.50;97.30;;;;;;5038426;28;20468;-59
2021/05/21 11:13:02;;;;;;;1.97;1.37;;;18.50;97.70;;;;;;5036437;28;20449;-59
2021/05/21 11:15:34;;;;;;;1.33;1.00;;;18.10;97.30;;;;;;5038484;28;20414;-59
2021/05/21 11:18:15;;;;;;;1.77;1.20;;;18.10;97.60;;;;;;5056656;28;20413;-59
2021/05/21 11:21:17;;;;;;;1.17;0.90;;;18.00;97.70;;;;;;5056304;28;20505;-58
2021/05/21 11:23:46;;;;;;;1.87;1.00;;;18.00;97.80;;;;;;5024446;28;20488;-57
2021/05/21 11:26:15;;;;;;;2.07;1.80;;;18.00;97.70;;;;;;5056322;28;20492;-56
2021/05/21 11:28:43;;;;;;;1.43;1.33;;;18.00;98.00;;;;;;5051306;28;20409;-59
2021/05/21 11:31:09;;;;;;;1.90;1.00;;;17.90;98.00;;;;;;5055788;28;20416;-58
2021/05/21 11:33:35;;;;;;;2.13;1.10;;;18.20;97.70;;;;;;5055978;28;20457;-59
2021/05/21 11:36:05;;;;;;;1.87;1.07;;;18.50;97.80;;;;;;5055916;28;20444;-59
2021/05/21 11:38:30;;;;;;;1.33;1.00;;;18.70;97.40;;;;;;5056169;28;20409;-59
2021/05/21 11:40:56;;;;;;;1.23;0.80;;;19.00;96.70;;;;;;5055586;28;20449;-59
2021/05/21 11:43:26;;;;;;;2.30;0.80;;;19.00;97.10;;;;;;5055493;28;20189;-59
2021/05/21 11:45:53;;;;;;;1.00;0.70;;;19.00;96.50;;;;;;5055678;28;20290;-58
2021/05/21 11:48:35;;;;;;;1.40;0.90;;;18.90;96.10;;;;;;5074140;28;20792;-58
2021/05/21 11:51:03;;;;;;;1.43;1.10;;;19.20;96.20;;;;;;5075749;28;20408;-58
2021/05/21 11:53:29;;;;;;;1.47;0.80;;;19.30;97.20;;;;;;5075346;28;20420;-58
2021/05/21 11:55:55;;;;;;;1.23;0.90;;;19.20;96.10;;;;;;5075450;28;20408;-57
2021/05/21 11:58:26;;;;;;;9.83;8.93;;;19.40;95.90;;;;;;5075074;28;20416;-58
2021/05/21 12:00:58;;;;;;;3.33;2.10;;;19.50;95.70;;;;;;5075431;28;20546;-59
2021/05/21 12:03:24;;;;;;;15.17;13.70;;;18.90;95.60;;;;;;5075337;28;20421;-58
2021/05/21 12:05:49;;;;;;;2.63;1.80;;;18.80;96.30;;;;;;5075811;28;20405;-58
2021/05/21 12:08:15;;;;;;;2.27;2.07;;;18.40;95.50;;;;;;5075277;28;20639;-58
2021/05/21 12:10:52;;;;;;;1.73;1.63;;;18.50;95.60;;;;;;5074434;28;20231;-58
2021/05/21 12:13:18;;;;;;;1.77;1.07;;;18.60;95.10;;;;;;5075054;28;20185;-58
2021/05/21 12:15:43;;;;;;;1.10;0.83;;;18.60;95.40;;;;;;5071109;28;20417;-58
2021/05/21 12:18:11;;;;;;;1.00;0.70;;;18.50;94.70;;;;;;5037372;28;20171;-58
2021/05/21 12:20:36;;;;;;;1.97;1.20;;;18.60;94.90;;;;;;5054784;28;20208;-56
2021/05/21 12:23:05;;;;;;;1.83;1.40;;;18.40;94.10;;;;;;5054563;28;20448;-57
2021/05/21 12:25:32;;;;;;;2.27;0.90;;;18.40;95.80;;;;;;5054565;28;20167;-58
2021/05/21 12:27:59;;;;;;;1.87;1.30;;;18.50;94.30;;;;;;5054412;28;20413;-58
2021/05/21 12:30:26;;;;;;;1.57;0.90;;;18.40;94.60;;;;;;5055087;28;20401;-58
2021/05/21 12:32:52;;;;;;;5.43;1.07;;;18.50;94.10;;;;;;5055030;28;20771;-58
2021/05/21 12:35:19;;;;;;;1.93;0.97;;;18.40;94.60;;;;;;5054701;28;20405;-58
2021/05/21 12:37:48;;;;;;;3.70;3.07;;;18.20;93.90;;;;;;5056005;28;20496;-57
2021/05/21 12:40:16;;;;;;;4.80;3.13;;;18.40;95.10;;;;;;5055014;28;20456;-58
2021/05/21 12:42:51;;;;;;;4.40;1.87;;;18.40;94.00;;;;;;5055413;28;20421;-57
2021/05/21 12:45:20;;;;;;;34.33;28.30;;;18.00;93.90;;;;;;5054734;28;20829;-58
2021/05/21 12:47:47;;;;;;;3.37;2.20;;;18.30;94.60;;;;;;5068204;28;20775;-58
2021/05/21 12:50:14;;;;;;;1.30;1.20;;;18.50;93.50;;;;;;5074728;28;20405;-58
2021/05/21 12:53:01;;;;;;;2.53;1.13;;;18.50;94.00;;;;;;5074661;28;20511;-58